SHMÚ vydal meteorologické výstrahy na Vietor na horáchSnehové jazyky a závejeVietor Zobraziť výstrahy

TAF

Letisková predpoveď TAF

Informácie o správe TAF

20.02.2020 - 23:00 UTC

TAF LZIB 202300Z 2100/2200 15005KT CAVOK
    BECMG 2103/2105 30012KT 9999 BKN040 BKN090
    TEMPO 2105/2114 -SHRA FEW035 BKN040
    TEMPO 2107/2119 31015G25KT
    PROB40 TEMPO 2108/2116 32020G35KT
    BECMG 2117/2119 CAVOK=
TAF LZKZ 202300Z 2100/2200 VRB02KT 9999 FEW045
    BECMG 2103/2105 21010KT SCT030 SCT050
    TEMPO 2110/2116 20015KT -SHRASN FEW030TCU BKN040
    BECMG 2117/2119 01005KT=
TAF LZTT 202300Z 2100/2200 23006KT CAVOK
    BECMG 2102/2104 9999 SCT030 SCT050
    TEMPO 2108/2118 24016KT -SHSN FEW020TCU BKN030=

20.02.2020 - 23:00 UTC

TAF LZSL 202300Z 2100/2109 VRB02KT CAVOK
    BECMG 2102/2104 9999 SCT040 BKN060
    TEMPO 2107/2109 4500 -SNRA FEW005 BKN014 OVC025=
TAF LZZI 202300Z 2100/2109 VRB02KT CAVOK
    BECMG 2101/2103 9999 SCT035 BKN050
    TEMPO 2107/2109 4000 -SNRA FEW005 BKN013 OVC020=

20.02.2020 - 17:00 UTC

TAF AMD LZPP 202010Z 2020/2103 CNL=

20.02.2020 - 20:00 UTC

TAF LZSL 202000Z 2021/2106 VRB02KT CAVOK
    BECMG 2102/2104 9999 SCT040 BKN060=
TAF LZZI 202000Z 2021/2106 VRB02KT CAVOK
    BECMG 2101/2103 9999 SCT035 BKN050=

20.02.2020 - 17:00 UTC

TAF LZSL 201700Z 2018/2103 36003KT CAVOK
    TEMPO 2100/2103 VRB02KT 9999 SCT030=
TAF LZPP 201700Z 2018/2103 23005KT CAVOK
    BECMG 2020/2022 16010KT=
TAF LZZI 201700Z 2018/2103 12004KT 9999 SCT040
    BECMG 2020/2022 18005KT CAVOK=

20.02.2020 - 17:00 UTC

TAF LZIB 201700Z 2018/2118 15005KT CAVOK
    BECMG 2103/2105 28012KT 9999 BKN040 BKN090
    TEMPO 2105/2114 30015G25KT -SHRA FEW035 BKN040=
TAF LZKZ 201700Z 2018/2118 VRB02KT CAVOK
    BECMG 2102/2104 21010KT SCT030 SCT050
    TEMPO 2109/2115 20015KT -SHRASN FEW030TCU BKN040=
TAF LZTT 201700Z 2018/2118 23008KT 9999 FEW020
    BECMG 2102/2104 SCT030 SCT050
    TEMPO 2108/2118 25018KT -SHSN FEW020TCU BKN030=

20.02.2020 - 14:00 UTC

TAF LZSL 201400Z 2015/2100 30008KT 9999 BKN040
    BECMG 2018/2020 33002KT CAVOK=
TAF LZPP 201400Z 2015/2100 32004KT CAVOK
    TEMPO 2018/2100 18004KT=
TAF LZZI 201400Z 2015/2100 12004KT 9999 SCT020 BKN050
    BECMG 2016/2018 18005KT CAVOK=

20.02.2020 - 11:00 UTC

TAF LZIB 201100Z 2012/2112 30010KT 9999 SCT045
    BECMG 2015/2017 15005KT CAVOK
    BECMG 2103/2105 28012KT 9999 BKN040 BKN090
    TEMPO 2105/2110 30017G30KT -SHRA FEW035 BKN040=
TAF LZKZ 201100Z 2012/2112 03006KT 9999 SCT030 SCT050
    TEMPO 2012/2016 01012KT
    BECMG 2017/2019 VRB02KT
    BECMG 2101/2103 21010KT
    TEMPO 2109/2112 -SHRA FEW030TCU BKN040=
TAF LZTT 201100Z 2012/2112 23008KT 9999 SCT020 BKN050
    TEMPO 2012/2018 -SHSN FEW020TCU BKN025
    TEMPO 2109/2112 25018KT -SHSN FEW020TCU BKN030=

20.02.2020 - 11:00 UTC

TAF LZSL 201100Z 2012/2021 34012KT 9999 BKN040
    BECMG 2018/2020 33002KT CAVOK=
TAF LZPP 201100Z 2012/2021 31011KT 9999 SCT040
    BECMG 2015/2017 02003KT CAVOK
    BECMG 2018/2020 15003KT=
TAF LZZI 201100Z 2012/2021 VRB02KT 9999 SCT020 BKN030
    BECMG 2016/2018 18005KT CAVOK=

20.02.2020 - 08:00 UTC

TAF LZSL 200800Z 2009/2018 24007KT 9999 BKN063
    BECMG 2010/2012 33006KT=
TAF LZPP 200800Z 2009/2018 04003KT CAVOK
    BECMG 2010/2012 33009KT
    TEMPO 2012/2018 9999 SCT040=
TAF LZZI 200800Z 2009/2018 28003KT 9999 FEW015 BKN027
    TEMPO 2009/2013 9999 -RA SCT013 BKN025=

20.02.2020 - 05:00 UTC

TAF LZSL 200500Z 2006/2015 28007KT 9999 SCT035
    TEMPO 2006/2009 -RA BKN023
    BECMG 2008/2010 33006KT=
TAF LZPP 200500Z 2006/2015 28005KT 9999 SCT038
    BECMG 2006/2008 33009KT=
TAF LZZI 200500Z 2006/2015 24005KT 9999 SCT030 BKN040
    TEMPO 2006/2009 6000 -RA SCT013 BKN022 =

20.02.2020 - 05:00 UTC

TAF LZIB 200500Z 2006/2106 30010KT CAVOK
    BECMG 2009/2011 9999 SCT045
    BECMG 2015/2017 15005KT CAVOK
    BECMG 2103/2105 25012KT 9999 BKN040 BKN090=
TAF LZKZ 200500Z 2006/2106 03006KT CAVOK
    BECMG 2008/2010 9999 SCT035
    TEMPO 2010/2016 02012KT
    BECMG 2017/2019 VRB02KT
    BECMG 2101/2103 21010KT=
TAF LZTT 200500Z 2006/2106 27014KT 9999 SCT020 BKN050
    TEMPO 2006/2009 6000 -SN SCT007 BKN020
    PROB40 TEMPO 2010/2018 -SHSN FEW020TCU BKN025
    BECMG 2010/2012 23008KT
    BECMG 2104/2106 24016KT SCT050 BKN080=

20.02.2020 - 02:00 UTC

TAF LZSL 200200Z 2003/2012 29006KT 9999 FEW055
    TEMPO 2003/2006 -RA SCT025 BKN035
    BECMG 2004/2006 VRB02KT=
TAF LZZI 200200Z 2003/2012 30003KT 9999 SCT030 OVC060
    BECMG 2003/2005 20004KT
    TEMPO 2003/2008 6000 -RA BKN014=

skok na menu ↑


skok na začiatok stránky ↑